Time;durP1;ratioP1;P1;durP2;ratioP2;P2;SDS_P1;SDS_P2;PMS_P1;PMS_P2;Temp;Humidity;BMP_temperature;BMP_pressure;BME280_temperature;BME280_humidity;BME280_pressure;Samples;Min_cycle;Max_cycle;Signal;HPM_P1;HPM_P2
2023/01/06 00:00:36;;;;;;;0.90;0.80;;;;;;;;;;5029278;28;20407;-86
2023/01/06 00:03:02;;;;;;;0.93;0.82;;;;;;;;;;5036786;28;20392;-85
2023/01/06 00:05:29;;;;;;;1.85;0.80;;;;;;;;;;5031976;28;20379;-85
2023/01/06 00:07:55;;;;;;;1.08;0.90;;;;;;;;;;5031840;28;21182;-85
2023/01/06 00:10:21;;;;;;;1.20;1.00;;;;;;;;;;5029618;28;20411;-86
2023/01/06 00:12:48;;;;;;;1.50;1.00;;;;;;;;;;5032087;28;20403;-85
2023/01/06 00:15:15;;;;;;;1.65;0.95;;;;;;;;;;5034391;28;20995;-85
2023/01/06 00:17:41;;;;;;;2.53;1.50;;;;;;;;;;5013788;28;21094;-86
2023/01/06 00:20:07;;;;;;;2.05;1.85;;;;;;;;;;5031669;28;20784;-83
2023/01/06 00:22:33;;;;;;;1.70;1.60;;;;;;;;;;5036081;28;20391;-85
2023/01/06 00:24:59;;;;;;;2.55;1.40;;;;;;;;;;5032062;28;20478;-85
2023/01/06 00:27:25;;;;;;;2.10;1.90;;;;;;;;;;5035406;28;20437;-85
2023/01/06 00:29:51;;;;;;;1.50;1.40;;;;;;;;;;5036675;28;20418;-85
2023/01/06 00:32:18;;;;;;;1.42;1.30;;;;;;;;;;5036176;28;20751;-85
2023/01/06 00:34:44;;;;;;;1.27;0.85;;;;;;;;;;5030683;28;21100;-84
2023/01/06 00:37:10;;;;;;;1.10;1.00;;;;;;;;;;5033133;28;20443;-85
2023/01/06 00:39:36;;;;;;;1.83;1.50;;;;;;;;;;5051519;28;20743;-84
2023/01/06 00:42:02;;;;;;;2.20;2.00;;;;;;;;;;5033993;28;20408;-85
2023/01/06 00:44:28;;;;;;;1.45;1.35;;;;;;;;;;5051487;28;20385;-85
2023/01/06 00:46:54;;;;;;;1.70;1.45;;;;;;;;;;5051585;28;20430;-85
2023/01/06 00:49:20;;;;;;;2.23;1.73;;;;;;;;;;5051290;28;20381;-85
2023/01/06 00:51:47;;;;;;;1.70;1.60;;;;;;;;;;5051572;28;20378;-85
2023/01/06 00:54:13;;;;;;;22.92;13.82;;;;;;;;;;5051266;28;20397;-84
2023/01/06 00:56:41;;;;;;;73.72;39.03;;;;;;;;;;5049836;28;20396;-85
2023/01/06 00:59:07;;;;;;;35.17;21.47;;;;;;;;;;5051369;28;20392;-86
2023/01/06 01:01:33;;;;;;;24.40;15.38;;;;;;;;;;5050581;28;20405;-86
2023/01/06 01:04:03;;;;;;;6.80;5.55;;;;;;;;;;5049675;28;20459;-85
2023/01/06 01:06:29;;;;;;;8.35;6.95;;;;;;;;;;5023932;28;20464;-83
2023/01/06 01:08:56;;;;;;;6.97;5.90;;;;;;;;;;5051206;28;20867;-84
2023/01/06 01:14:08;;;;;;;4.28;3.88;;;;;;;;;;5055158;28;20380;-84
2023/01/06 01:16:34;;;;;;;4.93;4.43;;;;;;;;;;5051948;28;20435;-83
2023/01/06 01:19:00;;;;;;;3.70;2.80;;;;;;;;;;5055001;28;20377;-84
2023/01/06 01:21:26;;;;;;;2.30;1.92;;;;;;;;;;5050840;28;20396;-84
2023/01/06 01:23:52;;;;;;;2.20;2.00;;;;;;;;;;5052127;28;20393;-84
2023/01/06 01:26:18;;;;;;;2.75;2.42;;;;;;;;;;5054978;28;20390;-84
2023/01/06 01:28:44;;;;;;;2.90;2.20;;;;;;;;;;5054887;28;20393;-84
2023/01/06 01:31:11;;;;;;;2.60;2.00;;;;;;;;;;5037137;28;20417;-84
2023/01/06 01:33:37;;;;;;;1.90;1.70;;;;;;;;;;5054915;28;20424;-83
2023/01/06 01:36:08;;;;;;;2.28;2.05;;;;;;;;;;5054748;28;20385;-84
2023/01/06 01:38:34;;;;;;;2.30;2.10;;;;;;;;;;5053458;28;20381;-85
2023/01/06 01:41:00;;;;;;;4.10;3.70;;;;;;;;;;5054218;28;20930;-84
2023/01/06 01:43:41;;;;;;;4.20;3.80;;;;;;;;;;5054152;28;20381;-84
2023/01/06 01:46:07;;;;;;;4.28;3.88;;;;;;;;;;5053860;28;20389;-83
2023/01/06 01:48:35;;;;;;;3.10;2.90;;;;;;;;;;5050282;28;20442;-86
2023/01/06 01:51:04;;;;;;;3.40;3.10;;;;;;;;;;5048489;28;20401;-86
2023/01/06 01:53:32;;;;;;;2.97;2.78;;;;;;;;;;5053409;28;20863;-84
2023/01/06 01:56:00;;;;;;;3.15;2.75;;;;;;;;;;5053324;28;20382;-84
2023/01/06 01:58:33;;;;;;;3.13;2.83;;;;;;;;;;5052974;28;20911;-86
2023/01/06 02:00:59;;;;;;;3.20;3.00;;;;;;;;;;5053083;28;20411;-84
2023/01/06 02:03:25;;;;;;;2.95;2.65;;;;;;;;;;5051829;28;20418;-86
2023/01/06 02:05:54;;;;;;;2.88;2.67;;;;;;;;;;5053167;28;20394;-84
2023/01/06 02:08:34;;;;;;;3.10;2.85;;;;;;;;;;5053181;28;20477;-86
2023/01/06 02:11:01;;;;;;;3.08;2.88;;;;;;;;;;5035236;28;20413;-86
2023/01/06 02:13:27;;;;;;;3.00;2.80;;;;;;;;;;5035383;28;20440;-84
2023/01/06 02:15:58;;;;;;;2.90;2.70;;;;;;;;;;5052992;28;20389;-87
2023/01/06 02:18:33;;;;;;;2.80;2.60;;;;;;;;;;5052958;28;20413;-86
2023/01/06 02:21:18;;;;;;;2.80;2.60;;;;;;;;;;5053944;28;20443;-86
2023/01/06 02:24:02;;;;;;;2.85;2.65;;;;;;;;;;5041304;28;20386;-85
2023/01/06 02:26:47;;;;;;;2.90;2.55;;;;;;;;;;5032890;28;20400;-86
2023/01/06 02:29:22;;;;;;;3.22;2.78;;;;;;;;;;5052650;28;20989;-84
2023/01/06 02:32:06;;;;;;;3.00;2.70;;;;;;;;;;5052774;28;20428;-84
2023/01/06 02:34:40;;;;;;;2.78;2.58;;;;;;;;;;5052695;28;20385;-84
2023/01/06 02:37:15;;;;;;;4.30;3.90;;;;;;;;;;5038375;28;20391;-85
2023/01/06 02:39:41;;;;;;;3.10;2.83;;;;;;;;;;5037813;28;20375;-85
2023/01/06 02:42:15;;;;;;;2.83;2.63;;;;;;;;;;5018189;28;20900;-84
2023/01/06 02:44:56;;;;;;;2.80;2.60;;;;;;;;;;5037537;28;20386;-84
2023/01/06 02:47:34;;;;;;;2.97;2.67;;;;;;;;;;5037099;28;20433;-85
2023/01/06 02:50:19;;;;;;;2.80;2.60;;;;;;;;;;5034611;28;20528;-85
2023/01/06 02:52:46;;;;;;;3.25;2.95;;;;;;;;;;5035546;28;20372;-84
2023/01/06 02:55:16;;;;;;;2.50;2.22;;;;;;;;;;5033726;28;20406;-86
2023/01/06 02:57:42;;;;;;;2.50;2.30;;;;;;;;;;5044071;28;20403;-86
2023/01/06 03:00:24;;;;;;;3.45;3.05;;;;;;;;;;5034495;28;20468;-84
2023/01/06 03:02:53;;;;;;;3.33;2.88;;;;;;;;;;5038807;28;20376;-85
2023/01/06 03:05:21;;;;;;;2.80;2.60;;;;;;;;;;5034254;28;20462;-86
2023/01/06 03:07:49;;;;;;;4.53;4.10;;;;;;;;;;5015758;28;21537;-86
2023/01/06 03:10:16;;;;;;;4.38;3.97;;;;;;;;;;5023064;28;20904;-84
2023/01/06 03:12:47;;;;;;;7.93;6.97;;;;;;;;;;5032952;28;20481;-86
2023/01/06 03:15:13;;;;;;;8.13;7.32;;;;;;;;;;5035261;28;20437;-85
2023/01/06 03:17:39;;;;;;;11.80;10.70;;;;;;;;;;5036265;28;20366;-85
2023/01/06 03:20:06;;;;;;;12.43;11.23;;;;;;;;;;5040594;28;20396;-86
2023/01/06 03:22:33;;;;;;;15.32;12.35;;;;;;;;;;5049021;28;20397;-85
2023/01/06 03:25:00;;;;;;;13.50;12.20;;;;;;;;;;5051732;28;20863;-85
2023/01/06 03:27:27;;;;;;;13.77;12.47;;;;;;;;;;5051636;28;20380;-84
2023/01/06 03:29:53;;;;;;;26.87;13.53;;;;;;;;;;5051605;28;20405;-85
2023/01/06 03:32:25;;;;;;;31.52;15.68;;;;;;;;;;5047845;28;20388;-84
2023/01/06 03:35:03;;;;;;;31.50;16.73;;;;;;;;;;5050833;28;20472;-86
2023/01/06 03:37:41;;;;;;;20.92;16.83;;;;;;;;;;5041517;28;20387;-85
2023/01/06 03:40:19;;;;;;;20.77;16.35;;;;;;;;;;5043771;28;20388;-85
2023/01/06 03:43:12;;;;;;;21.20;15.43;;;;;;;;;;5048530;28;20472;-84
2023/01/06 03:45:41;;;;;;;39.42;17.45;;;;;;;;;;5050682;28;20854;-83
2023/01/06 03:48:29;;;;;;;23.67;17.42;;;;;;;;;;5051030;28;20413;-83
2023/01/06 03:50:58;;;;;;;17.65;15.63;;;;;;;;;;5047500;28;20913;-84
2023/01/06 03:53:46;;;;;;;17.27;15.48;;;;;;;;;;5052072;28;21070;-83
2023/01/06 03:56:16;;;;;;;15.65;14.18;;;;;;;;;;5052049;28;20373;-84
2023/01/06 03:58:44;;;;;;;14.70;13.38;;;;;;;;;;5050344;28;20387;-84
2023/01/06 04:01:10;;;;;;;13.93;12.73;;;;;;;;;;5048836;28;20495;-84
2023/01/06 04:03:36;;;;;;;14.07;12.88;;;;;;;;;;5052178;28;20386;-84
2023/01/06 04:06:02;;;;;;;14.65;13.35;;;;;;;;;;5052007;28;20382;-84
2023/01/06 04:08:28;;;;;;;14.60;13.30;;;;;;;;;;5034154;28;20503;-84
2023/01/06 04:10:54;;;;;;;15.55;13.93;;;;;;;;;;5051881;28;20409;-84
2023/01/06 04:13:20;;;;;;;14.13;12.93;;;;;;;;;;5046407;28;20755;-84
2023/01/06 04:15:46;;;;;;;15.35;13.85;;;;;;;;;;5034012;28;20480;-83
2023/01/06 04:18:12;;;;;;;15.15;13.85;;;;;;;;;;5051819;28;20394;-83
2023/01/06 04:20:38;;;;;;;15.93;14.43;;;;;;;;;;5051760;28;20381;-84
2023/01/06 04:23:04;;;;;;;16.05;14.52;;;;;;;;;;5051863;28;20381;-84
2023/01/06 04:25:30;;;;;;;14.60;13.30;;;;;;;;;;5051688;28;20386;-84
2023/01/06 04:27:56;;;;;;;14.57;13.27;;;;;;;;;;5033886;28;20392;-84
2023/01/06 04:30:22;;;;;;;16.00;14.33;;;;;;;;;;5051546;28;20412;-84
2023/01/06 04:32:48;;;;;;;20.58;15.63;;;;;;;;;;5054038;28;20419;-84
2023/01/06 04:35:14;;;;;;;20.98;16.98;;;;;;;;;;5049798;28;20373;-84
2023/01/06 04:37:40;;;;;;;20.30;17.02;;;;;;;;;;5050980;28;20384;-83
2023/01/06 04:40:06;;;;;;;20.58;16.88;;;;;;;;;;5050727;28;20794;-84
2023/01/06 04:43:03;;;;;;;17.98;16.05;;;;;;;;;;5047451;28;20405;-84
2023/01/06 04:45:19;;;;;;;21.60;16.93;;;;;;;;;;5042953;28;20389;-83
2023/01/06 04:47:45;;;;;;;17.63;15.73;;;;;;;;;;5056018;28;20423;-84
2023/01/06 04:50:11;;;;;;;17.20;15.40;;;;;;;;;;5057186;28;20446;-83
2023/01/06 04:52:37;;;;;;;16.90;15.10;;;;;;;;;;5064025;28;20407;-84
2023/01/06 04:55:03;;;;;;;26.10;15.30;;;;;;;;;;5066567;28;20905;-85
2023/01/06 04:57:29;;;;;;;23.63;17.15;;;;;;;;;;5073461;28;20498;-84
2023/01/06 04:59:55;;;;;;;19.00;16.08;;;;;;;;;;5054419;28;20491;-84
2023/01/06 05:02:21;;;;;;;17.02;14.65;;;;;;;;;;5055066;28;20936;-84
2023/01/06 05:04:47;;;;;;;15.13;13.60;;;;;;;;;;5052473;28;20392;-85
2023/01/06 05:07:13;;;;;;;14.38;12.98;;;;;;;;;;5055412;28;20377;-85
2023/01/06 05:09:39;;;;;;;15.02;13.63;;;;;;;;;;5037545;28;20767;-84
2023/01/06 05:12:05;;;;;;;13.60;12.40;;;;;;;;;;5055362;28;20385;-85
2023/01/06 05:14:31;;;;;;;13.63;12.33;;;;;;;;;;5055943;28;20386;-84
2023/01/06 05:16:57;;;;;;;13.20;11.98;;;;;;;;;;5051499;28;20472;-85
2023/01/06 05:19:23;;;;;;;14.45;13.05;;;;;;;;;;5044547;28;20431;-85
2023/01/06 05:21:49;;;;;;;14.13;12.82;;;;;;;;;;5040915;28;20462;-86
2023/01/06 05:24:15;;;;;;;15.55;13.93;;;;;;;;;;5055401;28;20918;-86
2023/01/06 05:26:41;;;;;;;16.25;14.75;;;;;;;;;;5054653;28;20377;-86
2023/01/06 05:29:07;;;;;;;16.92;15.32;;;;;;;;;;5054873;28;20389;-86
2023/01/06 05:31:33;;;;;;;15.63;14.13;;;;;;;;;;5054103;28;20448;-85
2023/01/06 05:33:59;;;;;;;16.35;14.85;;;;;;;;;;5054782;28;20378;-86
2023/01/06 05:36:25;;;;;;;14.90;13.60;;;;;;;;;;5050732;28;20778;-85
2023/01/06 05:38:54;;;;;;;15.43;14.02;;;;;;;;;;5036817;28;20408;-85
2023/01/06 05:41:20;;;;;;;14.68;13.38;;;;;;;;;;5051978;28;20414;-86
2023/01/06 05:43:46;;;;;;;15.07;13.70;;;;;;;;;;5047804;28;20392;-86
2023/01/06 05:46:12;;;;;;;16.95;15.15;;;;;;;;;;5054606;28;20377;-85
2023/01/06 05:48:39;;;;;;;16.08;14.57;;;;;;;;;;5054620;28;20385;-86
2023/01/06 05:51:09;;;;;;;16.20;14.65;;;;;;;;;;5036406;28;20755;-85
2023/01/06 05:53:37;;;;;;;14.40;13.10;;;;;;;;;;5053263;28;20472;-85
2023/01/06 05:56:04;;;;;;;15.68;14.20;;;;;;;;;;5036151;28;20758;-85
2023/01/06 05:58:32;;;;;;;15.57;14.18;;;;;;;;;;5052976;28;20417;-85
2023/01/06 06:00:58;;;;;;;15.27;13.82;;;;;;;;;;5053642;28;20416;-85
2023/01/06 06:03:24;;;;;;;15.00;13.60;;;;;;;;;;5033185;28;20762;-85
2023/01/06 06:05:50;;;;;;;13.38;12.27;;;;;;;;;;5054335;28;20392;-84
2023/01/06 06:08:16;;;;;;;13.50;12.33;;;;;;;;;;5054206;28;20927;-84
2023/01/06 06:10:42;;;;;;;13.55;12.35;;;;;;;;;;5054164;28;20409;-85
2023/01/06 06:13:08;;;;;;;13.82;12.60;;;;;;;;;;5054140;28;20380;-85
2023/01/06 06:15:34;;;;;;;14.57;13.27;;;;;;;;;;5054066;28;20373;-85
2023/01/06 06:18:03;;;;;;;13.45;12.25;;;;;;;;;;5054041;28;20468;-85
2023/01/06 06:20:30;;;;;;;13.85;12.60;;;;;;;;;;5053945;28;20392;-85
2023/01/06 06:22:56;;;;;;;14.15;12.85;;;;;;;;;;5036354;28;20480;-85
2023/01/06 06:25:22;;;;;;;12.98;11.88;;;;;;;;;;5053908;28;20476;-84
2023/01/06 06:27:48;;;;;;;14.33;13.03;;;;;;;;;;5057782;28;20393;-85
2023/01/06 06:30:15;;;;;;;15.55;14.05;;;;;;;;;;5054531;28;20436;-84
2023/01/06 06:32:41;;;;;;;14.65;13.35;;;;;;;;;;5045566;28;20379;-85
2023/01/06 06:35:07;;;;;;;12.75;11.65;;;;;;;;;;5053779;28;20374;-85
2023/01/06 06:37:33;;;;;;;12.57;11.57;;;;;;;;;;5035756;28;21157;-85
2023/01/06 06:39:59;;;;;;;12.90;11.80;;;;;;;;;;5053668;28;20441;-85
2023/01/06 06:42:25;;;;;;;12.23;11.23;;;;;;;;;;5035713;28;20401;-85
2023/01/06 06:44:51;;;;;;;13.38;12.20;;;;;;;;;;5053560;28;20382;-85
2023/01/06 06:47:17;;;;;;;13.75;12.55;;;;;;;;;;5035687;28;20450;-85
2023/01/06 06:49:43;;;;;;;14.32;13.07;;;;;;;;;;5053419;28;20514;-84
2023/01/06 06:52:09;;;;;;;12.10;11.10;;;;;;;;;;5053475;28;20859;-84
2023/01/06 06:54:35;;;;;;;12.07;11.05;;;;;;;;;;5035444;28;20463;-84
2023/01/06 06:57:01;;;;;;;11.80;10.90;;;;;;;;;;5053251;28;20435;-84
2023/01/06 06:59:27;;;;;;;11.80;10.90;;;;;;;;;;5033180;28;20397;-84
2023/01/06 07:01:53;;;;;;;12.47;11.50;;;;;;;;;;5052151;28;20507;-85
2023/01/06 07:04:19;;;;;;;12.98;11.88;;;;;;;;;;5052625;28;20469;-85
2023/01/06 07:06:45;;;;;;;14.00;12.80;;;;;;;;;;5035122;28;20386;-85
2023/01/06 07:09:11;;;;;;;15.13;13.73;;;;;;;;;;5048723;28;20381;-85
2023/01/06 07:11:37;;;;;;;15.77;14.27;;;;;;;;;;5052344;28;20421;-84
2023/01/06 07:14:03;;;;;;;16.05;14.55;;;;;;;;;;5052866;28;20390;-84
2023/01/06 07:16:29;;;;;;;18.00;16.15;;;;;;;;;;5052911;28;20394;-84
2023/01/06 07:18:55;;;;;;;15.63;14.23;;;;;;;;;;5053113;28;20434;-84
2023/01/06 07:21:21;;;;;;;15.95;14.45;;;;;;;;;;5052458;28;20393;-84
2023/01/06 07:23:47;;;;;;;15.70;14.23;;;;;;;;;;5052726;28;20396;-84
2023/01/06 07:26:14;;;;;;;14.30;13.00;;;;;;;;;;5029386;28;20430;-85
2023/01/06 07:28:40;;;;;;;14.60;13.32;;;;;;;;;;5042628;28;20389;-85
2023/01/06 07:31:06;;;;;;;15.95;14.57;;;;;;;;;;5052237;28;20581;-85
2023/01/06 07:33:32;;;;;;;17.17;15.48;;;;;;;;;;5052663;28;20409;-85
2023/01/06 07:35:58;;;;;;;19.50;17.30;;;;;;;;;;5052057;28;20404;-85
2023/01/06 07:38:24;;;;;;;19.38;17.27;;;;;;;;;;5034306;28;20420;-86
2023/01/06 07:40:51;;;;;;;21.60;17.75;;;;;;;;;;5064135;22;20441;-82
2023/01/06 07:43:17;;;;;;;21.63;18.38;;;;;;;;;;5052243;28;20862;-82
2023/01/06 07:45:45;;;;;;;21.50;17.80;;;;;;;;;;5054334;28;20396;-80
2023/01/06 07:48:11;;;;;;;23.50;19.35;;;;;;;;;;5045418;28;20392;-80
2023/01/06 07:50:37;;;;;;;20.77;17.70;;;;;;;;;;5039721;28;20425;-79
2023/01/06 07:53:03;;;;;;;21.20;18.27;;;;;;;;;;5032353;28;20920;-79
2023/01/06 07:55:29;;;;;;;21.40;18.15;;;;;;;;;;5038459;28;20375;-80
2023/01/06 07:57:55;;;;;;;24.17;19.42;;;;;;;;;;5032278;28;20383;-80
2023/01/06 08:00:21;;;;;;;23.63;19.20;;;;;;;;;;5047968;28;20399;-79
2023/01/06 08:02:47;;;;;;;20.08;17.63;;;;;;;;;;5032072;28;20764;-81
2023/01/06 08:05:13;;;;;;;19.03;17.03;;;;;;;;;;5042906;28;20381;-81
2023/01/06 08:07:39;;;;;;;18.65;16.75;;;;;;;;;;5040705;28;20478;-78
2023/01/06 08:10:06;;;;;;;18.05;16.35;;;;;;;;;;5032712;28;20921;-80
2023/01/06 08:12:32;;;;;;;16.42;14.93;;;;;;;;;;5036177;28;20383;-80
2023/01/06 08:14:58;;;;;;;18.65;16.85;;;;;;;;;;5045372;28;20443;-79
2023/01/06 08:17:24;;;;;;;17.67;15.98;;;;;;;;;;5049974;28;20853;-79
2023/01/06 08:19:50;;;;;;;17.73;16.02;;;;;;;;;;5031495;28;20383;-80
2023/01/06 08:22:16;;;;;;;15.73;14.23;;;;;;;;;;5040978;28;20469;-80
2023/01/06 08:24:42;;;;;;;15.45;14.10;;;;;;;;;;5031530;28;20411;-80
2023/01/06 08:27:08;;;;;;;15.57;14.17;;;;;;;;;;5051374;28;20789;-80
2023/01/06 08:29:34;;;;;;;16.20;14.65;;;;;;;;;;5043286;28;20395;-80
2023/01/06 08:32:00;;;;;;;17.33;15.63;;;;;;;;;;5031202;28;20437;-80
2023/01/06 08:34:26;;;;;;;16.52;15.02;;;;;;;;;;5039816;28;20849;-79
2023/01/06 08:36:52;;;;;;;17.80;15.98;;;;;;;;;;5051681;28;20439;-80
2023/01/06 08:39:18;;;;;;;16.90;15.27;;;;;;;;;;5033208;28;20441;-81
2023/01/06 08:41:46;;;;;;;18.50;16.70;;;;;;;;;;5030103;28;20383;-82
2023/01/06 08:44:12;;;;;;;18.02;16.23;;;;;;;;;;5029867;28;20426;-80
2023/01/06 08:46:38;;;;;;;18.23;16.48;;;;;;;;;;5030221;28;20423;-80
2023/01/06 08:49:04;;;;;;;16.15;14.65;;;;;;;;;;5030912;28;20749;-80
2023/01/06 08:51:30;;;;;;;16.08;14.68;;;;;;;;;;5030772;28;20407;-81
2023/01/06 08:53:56;;;;;;;14.75;13.45;;;;;;;;;;5030729;28;20387;-81
2023/01/06 08:56:24;;;;;;;15.18;13.70;;;;;;;;;;5030115;28;20468;-82
2023/01/06 08:58:51;;;;;;;17.58;15.90;;;;;;;;;;5033836;28;20392;-81
2023/01/06 09:01:18;;;;;;;16.55;14.88;;;;;;;;;;5031326;28;20813;-82
2023/01/06 09:03:44;;;;;;;17.25;15.55;;;;;;;;;;5031524;28;20387;-80
2023/01/06 09:06:10;;;;;;;17.70;15.90;;;;;;;;;;5031333;28;20941;-82
2023/01/06 09:08:36;;;;;;;16.77;15.07;;;;;;;;;;5031468;28;20387;-81
2023/01/06 09:11:09;;;;;;;15.85;14.35;;;;;;;;;;5031159;28;20490;-81
2023/01/06 09:13:36;;;;;;;16.25;14.75;;;;;;;;;;5031365;28;20565;-82
2023/01/06 09:16:05;;;;;;;16.10;14.50;;;;;;;;;;5042957;28;20374;-81
2023/01/06 09:18:31;;;;;;;15.35;13.95;;;;;;;;;;5047013;28;20783;-81
2023/01/06 09:20:57;;;;;;;16.35;14.65;;;;;;;;;;5039413;28;20392;-82
2023/01/06 09:23:23;;;;;;;15.27;13.77;;;;;;;;;;5049436;28;20377;-83
2023/01/06 09:25:49;;;;;;;14.83;13.60;;;;;;;;;;5039403;28;20395;-84
2023/01/06 09:28:16;;;;;;;15.00;13.70;;;;;;;;;;5031357;28;20909;-85
2023/01/06 09:30:44;;;;;;;16.10;14.50;;;;;;;;;;5031147;28;21079;-83
2023/01/06 09:33:10;;;;;;;15.65;14.20;;;;;;;;;;5032490;28;20390;-83
2023/01/06 09:35:36;;;;;;;15.68;14.27;;;;;;;;;;5034429;28;20473;-83
2023/01/06 09:38:02;;;;;;;15.10;13.60;;;;;;;;;;5033872;28;20387;-82
2023/01/06 09:40:38;;;;;;;15.00;13.57;;;;;;;;;;5034481;28;20422;-81
2023/01/06 09:43:24;;;;;;;14.27;12.97;;;;;;;;;;5031701;28;20462;-82
2023/01/06 09:45:53;;;;;;;14.43;13.07;;;;;;;;;;5031082;28;20871;-82
2023/01/06 09:48:21;;;;;;;13.70;12.50;;;;;;;;;;5034022;28;20905;-83
2023/01/06 09:50:50;;;;;;;13.80;12.52;;;;;;;;;;5033398;28;20465;-84
2023/01/06 09:53:16;;;;;;;13.82;12.60;;;;;;;;;;5032207;28;20945;-83
2023/01/06 09:55:44;;;;;;;12.68;11.48;;;;;;;;;;5035954;28;20411;-83
2023/01/06 09:58:10;;;;;;;13.13;11.90;;;;;;;;;;5034517;28;20387;-83
2023/01/06 10:00:39;;;;;;;12.60;11.50;;;;;;;;;;5033802;28;20394;-85
2023/01/06 10:03:05;;;;;;;11.90;10.90;;;;;;;;;;5034410;28;20383;-83
2023/01/06 10:05:37;;;;;;;12.02;11.02;;;;;;;;;;5033141;28;20387;-83
2023/01/06 10:08:09;;;;;;;11.13;10.23;;;;;;;;;;5034261;28;20932;-84
2023/01/06 10:10:42;;;;;;;11.35;10.18;;;;;;;;;;5033836;28;20407;-85
2023/01/06 10:13:28;;;;;;;11.07;10.00;;;;;;;;;;5033064;28;20375;-84
2023/01/06 10:16:09;;;;;;;11.00;10.10;;;;;;;;;;4991001;28;20406;-83
2023/01/06 10:18:54;;;;;;;11.02;10.07;;;;;;;;;;5043343;28;20500;-84
2023/01/06 10:21:26;;;;;;;10.37;9.57;;;;;;;;;;5040631;28;20398;-85
2023/01/06 10:23:58;;;;;;;9.90;9.10;;;;;;;;;;5036493;28;20474;-84
2023/01/06 10:26:24;;;;;;;9.43;8.63;;;;;;;;;;5031773;28;20456;-86
2023/01/06 10:28:53;;;;;;;8.50;7.90;;;;;;;;;;5029826;28;20398;-84
2023/01/06 10:31:21;;;;;;;8.35;7.75;;;;;;;;;;5032142;28;20411;-84
2023/01/06 10:33:49;;;;;;;8.30;7.70;;;;;;;;;;5032531;28;20413;-85
2023/01/06 10:36:16;;;;;;;8.95;8.10;;;;;;;;;;5034621;28;20896;-85
2023/01/06 10:38:44;;;;;;;9.15;8.35;;;;;;;;;;5038584;28;20389;-84
2023/01/06 10:41:10;;;;;;;9.23;8.52;;;;;;;;;;5033369;28;20421;-85
2023/01/06 10:43:36;;;;;;;8.67;7.97;;;;;;;;;;5018415;28;20404;-85
2023/01/06 10:46:02;;;;;;;8.15;7.55;;;;;;;;;;5016898;28;20387;-85
2023/01/06 10:48:30;;;;;;;7.75;7.15;;;;;;;;;;5015542;28;20833;-85
2023/01/06 10:50:56;;;;;;;8.55;7.95;;;;;;;;;;5017637;28;20401;-85
2023/01/06 10:53:22;;;;;;;7.93;7.32;;;;;;;;;;5023349;28;20395;-85
2023/01/06 10:55:55;;;;;;;7.20;6.60;;;;;;;;;;5017077;28;20377;-84
2023/01/06 10:58:24;;;;;;;7.22;6.72;;;;;;;;;;5017874;28;20377;-84
2023/01/06 11:00:54;;;;;;;7.35;6.80;;;;;;;;;;5023180;28;20394;-85
2023/01/06 11:03:20;;;;;;;6.88;6.38;;;;;;;;;;5015046;28;20377;-85
2023/01/06 11:05:46;;;;;;;5.90;5.50;;;;;;;;;;5018954;28;20553;-85
2023/01/06 11:08:14;;;;;;;6.20;5.80;;;;;;;;;;5016922;28;20482;-84
2023/01/06 11:10:45;;;;;;;5.60;5.20;;;;;;;;;;5019399;28;20434;-85
2023/01/06 11:13:24;;;;;;;5.68;5.28;;;;;;;;;;5018010;28;20878;-84
2023/01/06 11:15:50;;;;;;;6.13;5.63;;;;;;;;;;5016971;28;21193;-86
2023/01/06 11:18:27;;;;;;;7.65;6.82;;;;;;;;;;5023030;28;20739;-85
2023/01/06 11:21:05;;;;;;;5.75;5.35;;;;;;;;;;5016532;28;20377;-84
2023/01/06 11:23:31;;;;;;;5.75;5.35;;;;;;;;;;5031505;28;20866;-86
2023/01/06 11:26:01;;;;;;;5.00;4.60;;;;;;;;;;5030212;28;20395;-86
2023/01/06 11:28:27;;;;;;;5.20;4.80;;;;;;;;;;5005593;28;20944;-86
2023/01/06 11:30:55;;;;;;;4.65;4.35;;;;;;;;;;5018215;28;20419;-85
2023/01/06 11:33:22;;;;;;;4.55;4.25;;;;;;;;;;5013092;28;20758;-85
2023/01/06 11:35:48;;;;;;;4.80;4.40;;;;;;;;;;5030191;28;20375;-85
2023/01/06 11:38:15;;;;;;;4.70;4.30;;;;;;;;;;5035191;28;20383;-88
2023/01/06 11:40:43;;;;;;;4.20;3.90;;;;;;;;;;5030933;28;20417;-87
2023/01/06 11:43:12;;;;;;;4.33;3.93;;;;;;;;;;5027191;28;21092;-88
2023/01/06 11:45:39;;;;;;;4.45;4.00;;;;;;;;;;5045786;28;20479;-88
2023/01/06 11:48:08;;;;;;;4.22;3.92;;;;;;;;;;5038374;28;20375;-87
2023/01/06 11:50:36;;;;;;;4.07;3.78;;;;;;;;;;5022363;28;20554;-88
2023/01/06 11:53:03;;;;;;;4.22;3.92;;;;;;;;;;5031472;28;20457;-86
2023/01/06 11:55:29;;;;;;;3.90;3.60;;;;;;;;;;5029138;28;20387;-88
2023/01/06 11:58:01;;;;;;;4.18;3.88;;;;;;;;;;5029647;28;20380;-87
2023/01/06 12:00:27;;;;;;;3.83;3.53;;;;;;;;;;5030131;28;20387;-87
2023/01/06 12:03:02;;;;;;;4.00;3.70;;;;;;;;;;5022863;28;20396;-86
2023/01/06 12:05:35;;;;;;;4.45;4.05;;;;;;;;;;5031948;28;20390;-85
2023/01/06 12:08:03;;;;;;;4.22;3.90;;;;;;;;;;5032107;28;20383;-85
2023/01/06 12:10:32;;;;;;;4.28;3.88;;;;;;;;;;5031975;28;20415;-86
2023/01/06 12:12:58;;;;;;;3.20;3.00;;;;;;;;;;5031794;28;20382;-87
2023/01/06 12:15:27;;;;;;;3.15;2.90;;;;;;;;;;5032741;28;20403;-86
2023/01/06 12:17:53;;;;;;;3.45;3.15;;;;;;;;;;5027479;28;20391;-86
2023/01/06 12:20:22;;;;;;;2.93;2.63;;;;;;;;;;5030026;28;20395;-86
2023/01/06 12:22:49;;;;;;;2.80;2.60;;;;;;;;;;5031370;28;20411;-85
2023/01/06 12:25:19;;;;;;;2.20;2.10;;;;;;;;;;5044550;28;20398;-86
2023/01/06 12:27:45;;;;;;;1.90;1.80;;;;;;;;;;5035253;28;20391;-86
2023/01/06 12:30:17;;;;;;;2.30;2.10;;;;;;;;;;5034646;28;20415;-86
2023/01/06 12:32:45;;;;;;;2.25;2.10;;;;;;;;;;5038085;28;20381;-85
2023/01/06 12:35:15;;;;;;;2.08;1.88;;;;;;;;;;5029736;28;20433;-86
2023/01/06 12:37:44;;;;;;;2.80;2.50;;;;;;;;;;5031229;28;20383;-85
2023/01/06 12:40:18;;;;;;;2.40;2.20;;;;;;;;;;5031393;28;20761;-86
2023/01/06 12:43:03;;;;;;;2.60;2.40;;;;;;;;;;5029305;28;20387;-85
2023/01/06 12:45:44;;;;;;;3.30;3.00;;;;;;;;;;5007230;28;20389;-91
2023/01/06 12:48:18;;;;;;;3.08;2.83;;;;;;;;;;5030342;28;20405;-86
2023/01/06 12:50:56;;;;;;;3.15;2.50;;;;;;;;;;5030652;28;20410;-87
2023/01/06 12:53:31;;;;;;;3.40;2.60;;;;;;;;;;5030870;28;20391;-87
2023/01/06 12:56:16;;;;;;;2.45;2.25;;;;;;;;;;5031313;28;20440;-87
2023/01/06 12:58:51;;;;;;;2.10;2.00;;;;;;;;;;5031557;28;20389;-86
2023/01/06 13:01:20;;;;;;;2.40;2.22;;;;;;;;;;5033211;28;20433;-87
2023/01/06 13:03:59;;;;;;;2.85;2.65;;;;;;;;;;5031448;28;20383;-86
2023/01/06 13:06:37;;;;;;;4.50;2.72;;;;;;;;;;5030999;28;20371;-88
2023/01/06 13:09:06;;;;;;;3.00;2.50;;;;;;;;;;5017610;28;20392;-87
2023/01/06 13:11:47;;;;;;;2.83;2.63;;;;;;;;;;5029316;28;20419;-87
2023/01/06 13:14:16;;;;;;;3.17;2.20;;;;;;;;;;5034253;28;20409;-87
2023/01/06 13:16:43;;;;;;;2.83;2.60;;;;;;;;;;5034442;28;20387;-88
2023/01/06 13:19:18;;;;;;;2.45;2.10;;;;;;;;;;5035140;28;20736;-87
2023/01/06 13:21:44;;;;;;;2.40;2.20;;;;;;;;;;5020674;28;20388;-86
2023/01/06 13:24:43;;;;;;;2.40;2.20;;;;;;;;;;5034234;28;20960;-86
2023/01/06 13:27:18;;;;;;;2.20;2.00;;;;;;;;;;4987617;28;20387;-86
2023/01/06 13:30:03;;;;;;;2.38;2.08;;;;;;;;;;5047514;28;20387;-86
2023/01/06 13:32:35;;;;;;;2.55;2.35;;;;;;;;;;5047124;28;20413;-86
2023/01/06 13:35:04;;;;;;;2.72;2.40;;;;;;;;;;5043744;28;20402;-88
2023/01/06 13:37:49;;;;;;;3.10;2.80;;;;;;;;;;5033862;28;20414;-87
2023/01/06 13:40:17;;;;;;;3.40;3.20;;;;;;;;;;5046352;28;20404;-87
2023/01/06 13:42:50;;;;;;;3.20;2.90;;;;;;;;;;5036249;28;20387;-87
2023/01/06 13:45:19;;;;;;;2.80;2.60;;;;;;;;;;5019262;28;20392;-86
2023/01/06 13:47:46;;;;;;;2.67;2.47;;;;;;;;;;5015040;28;20390;-87
2023/01/06 13:50:14;;;;;;;3.10;2.90;;;;;;;;;;5017959;28;20437;-87
2023/01/06 13:52:40;;;;;;;2.97;2.78;;;;;;;;;;5017351;28;20960;-87
2023/01/06 13:55:21;;;;;;;2.88;2.67;;;;;;;;;;5020223;28;20865;-86
2023/01/06 13:57:47;;;;;;;3.00;2.80;;;;;;;;;;5031531;28;20849;-86
2023/01/06 14:00:15;;;;;;;3.00;2.80;;;;;;;;;;5033831;28;20982;-86
2023/01/06 14:02:42;;;;;;;3.05;2.85;;;;;;;;;;5027213;28;20402;-86
2023/01/06 14:05:20;;;;;;;3.42;3.13;;;;;;;;;;5033237;28;20421;-85
2023/01/06 14:07:59;;;;;;;3.03;2.83;;;;;;;;;;5025773;28;20380;-86
2023/01/06 14:10:32;;;;;;;2.80;2.53;;;;;;;;;;5015530;28;20589;-89
2023/01/06 14:12:58;;;;;;;2.60;2.40;;;;;;;;;;5029210;28;20415;-85
2023/01/06 14:15:31;;;;;;;2.55;2.35;;;;;;;;;;5035051;28;20379;-84
2023/01/06 14:17:57;;;;;;;2.65;2.45;;;;;;;;;;5026304;28;20413;-86
2023/01/06 14:20:37;;;;;;;2.95;2.70;;;;;;;;;;5022949;28;20407;-85
2023/01/06 14:23:05;;;;;;;3.00;2.80;;;;;;;;;;5034943;28;21047;-86
2023/01/06 14:25:35;;;;;;;3.22;2.92;;;;;;;;;;5032964;28;20375;-86
2023/01/06 14:28:01;;;;;;;3.60;3.38;;;;;;;;;;5034167;28;20389;-85
2023/01/06 14:30:36;;;;;;;2.95;2.75;;;;;;;;;;5038199;28;20405;-85
2023/01/06 14:33:04;;;;;;;2.78;2.58;;;;;;;;;;5045713;28;20388;-86
2023/01/06 14:35:43;;;;;;;3.25;3.05;;;;;;;;;;5040278;28;20375;-86
2023/01/06 14:38:30;;;;;;;3.80;2.80;;;;;;;;;;5032756;28;20386;-86
2023/01/06 14:41:02;;;;;;;2.80;2.60;;;;;;;;;;5047945;28;20413;-86
2023/01/06 14:43:30;;;;;;;3.00;2.80;;;;;;;;;;5033894;28;20383;-86